Time;durP1;ratioP1;P1;durP2;ratioP2;P2;SDS_P1;SDS_P2;PMS_P1;PMS_P2;Temp;Humidity;BMP_temperature;BMP_pressure;BME280_temperature;BME280_humidity;BME280_pressure;Samples;Min_cycle;Max_cycle;Signal;HPM_P1;HPM_P2
2024/04/22 00:00:43;;;;;;;1.15;0.50;;;5.30;99.90;;;;;;6425873;22;20012;-64
2024/04/22 00:03:09;;;;;;;1.50;0.93;;;5.30;99.90;;;;;;6471138;22;20002;-64
2024/04/22 00:05:34;;;;;;;1.40;0.60;;;5.30;99.90;;;;;;6470659;22;20013;-65
2024/04/22 00:08:00;;;;;;;1.40;0.70;;;5.30;99.90;;;;;;6470829;22;20436;-64
2024/04/22 00:10:26;;;;;;;1.10;0.60;;;5.30;99.90;;;;;;6469681;22;20010;-64
2024/04/22 00:12:51;;;;;;;2.28;0.68;;;5.30;99.90;;;;;;6470321;22;20071;-64
2024/04/22 00:15:17;;;;;;;1.63;0.90;;;5.50;99.90;;;;;;6473470;22;20012;-65
2024/04/22 00:17:43;;;;;;;3.50;0.90;;;5.40;99.90;;;;;;6471032;22;20439;-64
2024/04/22 00:20:08;;;;;;;2.28;0.60;;;5.30;99.90;;;;;;6472618;22;20001;-65
2024/04/22 00:22:34;;;;;;;2.05;0.70;;;5.30;99.90;;;;;;6470792;22;20002;-64
2024/04/22 00:25:01;;;;;;;3.15;0.80;;;5.30;99.90;;;;;;6470462;22;20030;-65
2024/04/22 00:27:28;;;;;;;1.80;0.90;;;5.30;99.90;;;;;;6470080;22;20002;-65
2024/04/22 00:29:54;;;;;;;3.78;0.80;;;5.20;99.90;;;;;;6466388;22;20002;-65
2024/04/22 00:32:19;;;;;;;2.80;0.82;;;5.30;99.90;;;;;;6472415;22;20383;-64
2024/04/22 00:34:48;;;;;;;2.95;0.80;;;5.30;99.90;;;;;;6471470;22;19998;-65
2024/04/22 00:37:14;;;;;;;2.05;0.80;;;5.30;99.90;;;;;;6471946;22;20441;-64
2024/04/22 00:39:39;;;;;;;1.38;0.75;;;5.30;99.90;;;;;;6467361;22;20002;-64
2024/04/22 00:42:05;;;;;;;3.85;1.10;;;5.40;99.90;;;;;;6472173;22;20309;-64
2024/04/22 00:44:31;;;;;;;3.45;1.15;;;5.30;99.90;;;;;;6469865;22;20012;-64
2024/04/22 00:46:56;;;;;;;1.90;0.90;;;5.30;99.90;;;;;;6471896;22;20106;-64
2024/04/22 00:49:22;;;;;;;1.58;0.82;;;5.20;99.90;;;;;;6469265;22;20008;-65
2024/04/22 00:51:49;;;;;;;1.35;0.95;;;5.20;99.90;;;;;;6472287;22;20013;-65
2024/04/22 00:54:15;;;;;;;4.25;1.25;;;5.20;99.90;;;;;;6469599;22;20001;-64
2024/04/22 00:56:40;;;;;;;3.30;1.17;;;5.20;99.90;;;;;;6472051;22;20039;-64
2024/04/22 00:59:06;;;;;;;2.08;1.13;;;5.20;99.90;;;;;;6472773;22;19998;-64
2024/04/22 01:01:32;;;;;;;3.97;1.20;;;5.20;99.90;;;;;;6469557;22;20005;-64
2024/04/22 01:03:58;;;;;;;3.22;1.00;;;5.20;99.90;;;;;;6473993;22;20022;-64
2024/04/22 01:06:24;;;;;;;1.85;0.88;;;5.20;99.90;;;;;;6472574;22;20072;-65
2024/04/22 01:08:50;;;;;;;3.28;1.10;;;5.20;99.90;;;;;;6470683;22;20002;-65
2024/04/22 01:11:16;;;;;;;2.53;1.10;;;5.20;99.90;;;;;;6473806;22;20009;-65
2024/04/22 01:13:44;;;;;;;1.75;1.10;;;5.30;99.90;;;;;;6470975;22;20425;-64
2024/04/22 01:16:10;;;;;;;2.38;1.38;;;5.30;99.90;;;;;;6429880;22;20016;-64
2024/04/22 01:18:36;;;;;;;2.55;1.17;;;5.30;99.90;;;;;;6470740;22;19998;-65
2024/04/22 01:21:01;;;;;;;3.17;1.15;;;5.30;99.90;;;;;;6472996;22;20054;-64
2024/04/22 01:23:27;;;;;;;1.63;0.90;;;5.30;99.90;;;;;;6472080;22;20024;-64
2024/04/22 01:25:57;;;;;;;5.78;1.92;;;5.30;99.90;;;;;;6474369;22;19997;-64
2024/04/22 01:28:23;;;;;;;1.65;1.00;;;5.30;99.90;;;;;;6470494;22;20013;-64
2024/04/22 01:30:49;;;;;;;2.50;0.75;;;5.30;99.90;;;;;;6468126;22;20309;-65
2024/04/22 01:33:15;;;;;;;1.20;1.00;;;5.30;99.90;;;;;;6472119;22;20053;-64
2024/04/22 01:35:41;;;;;;;3.08;1.13;;;5.20;99.90;;;;;;6471689;22;20034;-65
2024/04/22 01:38:07;;;;;;;2.55;1.10;;;5.20;99.90;;;;;;6472270;22;20488;-64
2024/04/22 01:40:32;;;;;;;1.48;1.10;;;5.10;99.90;;;;;;6472779;22;20001;-64
2024/04/22 01:42:58;;;;;;;3.20;0.90;;;5.10;99.90;;;;;;6473243;22;19998;-65
2024/04/22 01:45:24;;;;;;;3.05;1.45;;;5.00;99.90;;;;;;6474944;22;20098;-65
2024/04/22 01:47:49;;;;;;;2.63;1.00;;;5.00;99.90;;;;;;6473682;22;20040;-64
2024/04/22 01:50:15;;;;;;;3.67;0.90;;;4.90;99.90;;;;;;6472366;22;19998;-64
2024/04/22 01:52:41;;;;;;;1.48;1.15;;;4.90;99.90;;;;;;6473764;22;20016;-64
2024/04/22 01:55:06;;;;;;;2.08;1.17;;;4.80;99.90;;;;;;6472418;22;20001;-64
2024/04/22 01:57:32;;;;;;;2.63;1.27;;;4.80;99.90;;;;;;6473334;22;20432;-64
2024/04/22 01:59:58;;;;;;;3.67;1.27;;;4.70;99.90;;;;;;6427626;22;20010;-64
2024/04/22 02:02:23;;;;;;;1.92;0.90;;;4.70;99.90;;;;;;6473059;22;20075;-64
2024/04/22 02:04:52;;;;;;;2.10;1.15;;;4.60;99.90;;;;;;6471135;22;20010;-64
2024/04/22 02:07:18;;;;;;;1.50;1.00;;;4.50;99.90;;;;;;6473255;22;20017;-64
2024/04/22 02:09:44;;;;;;;2.17;1.10;;;4.50;99.90;;;;;;6427511;22;20006;-64
2024/04/22 02:12:09;;;;;;;2.85;1.40;;;4.40;99.90;;;;;;6474114;22;20002;-64
2024/04/22 02:14:35;;;;;;;1.23;1.10;;;4.40;99.90;;;;;;6472870;22;20466;-64
2024/04/22 02:17:01;;;;;;;2.88;1.65;;;4.40;99.90;;;;;;6473711;22;20017;-65
2024/04/22 02:19:27;;;;;;;3.80;1.30;;;4.30;99.90;;;;;;6471038;22;20002;-64
2024/04/22 02:21:53;;;;;;;2.58;1.42;;;4.30;99.90;;;;;;6474214;22;20017;-64
2024/04/22 02:24:18;;;;;;;5.40;1.55;;;4.20;99.90;;;;;;6472556;22;20002;-64
2024/04/22 02:26:45;;;;;;;1.85;1.40;;;4.20;99.90;;;;;;6472305;22;20034;-64
2024/04/22 02:29:12;;;;;;;5.10;1.45;;;4.10;99.90;;;;;;6472303;22;20005;-64
2024/04/22 02:31:38;;;;;;;3.65;1.60;;;4.10;99.90;;;;;;6473402;22;19998;-64
2024/04/22 02:34:04;;;;;;;3.65;1.30;;;4.10;99.90;;;;;;6471794;22;20314;-64
2024/04/22 02:36:30;;;;;;;3.40;1.80;;;4.00;99.90;;;;;;6473153;22;20401;-64
2024/04/22 02:38:56;;;;;;;1.90;1.20;;;4.00;99.90;;;;;;6472565;22;19998;-65
2024/04/22 02:41:21;;;;;;;2.75;1.55;;;3.90;99.90;;;;;;6470781;22;20003;-64
2024/04/22 02:43:48;;;;;;;2.08;1.30;;;3.90;99.90;;;;;;6473386;22;20002;-64
2024/04/22 02:46:15;;;;;;;3.60;1.58;;;3.80;99.90;;;;;;6473700;22;19998;-64
2024/04/22 02:48:40;;;;;;;6.75;1.60;;;3.90;99.90;;;;;;6472889;22;20312;-65
2024/04/22 02:51:06;;;;;;;1.83;1.20;;;3.80;99.90;;;;;;6471070;22;20006;-64
2024/04/22 02:53:32;;;;;;;1.88;1.52;;;3.80;99.90;;;;;;6472898;22;20008;-64
2024/04/22 02:55:58;;;;;;;2.80;1.40;;;3.80;99.90;;;;;;6473160;22;20012;-64
2024/04/22 02:58:40;;;;;;;4.13;2.03;;;3.70;99.90;;;;;;6472793;22;20006;-64
2024/04/22 03:01:08;;;;;;;3.00;1.75;;;3.70;99.90;;;;;;6472352;22;20423;-64
2024/04/22 03:03:34;;;;;;;4.97;1.95;;;3.70;99.90;;;;;;6471877;22;20006;-64
2024/04/22 03:05:59;;;;;;;2.92;1.60;;;3.70;99.90;;;;;;6471270;22;20393;-64
2024/04/22 03:08:25;;;;;;;4.07;1.20;;;3.70;99.90;;;;;;6472082;22;20008;-64
2024/04/22 03:10:56;;;;;;;3.40;1.52;;;3.70;99.90;;;;;;6472398;22;20317;-64
2024/04/22 03:13:41;;;;;;;4.35;1.58;;;3.60;99.90;;;;;;6434565;22;20006;-64
2024/04/22 03:16:07;;;;;;;3.55;1.73;;;3.60;99.90;;;;;;6473124;22;20006;-64
2024/04/22 03:18:53;;;;;;;2.20;1.55;;;3.60;99.90;;;;;;6434537;22;20308;-64
2024/04/22 03:21:19;;;;;;;3.85;1.63;;;3.50;99.90;;;;;;6470635;22;20002;-64
2024/04/22 03:23:44;;;;;;;2.22;1.70;;;3.50;99.90;;;;;;6471719;22;20440;-64
2024/04/22 03:26:10;;;;;;;3.97;1.90;;;3.50;99.90;;;;;;6472981;22;20392;-64
2024/04/22 03:28:40;;;;;;;2.85;1.27;;;3.50;99.90;;;;;;6471641;22;20002;-64
2024/04/22 03:31:25;;;;;;;1.98;1.23;;;3.40;99.90;;;;;;6431763;22;20002;-64
2024/04/22 03:33:51;;;;;;;5.85;1.75;;;3.50;99.90;;;;;;6471671;22;20002;-64
2024/04/22 03:36:37;;;;;;;2.80;1.55;;;3.40;99.90;;;;;;6435516;22;19997;-66
2024/04/22 03:39:02;;;;;;;2.30;2.10;;;3.40;99.90;;;;;;6427479;22;20178;-64
2024/04/22 03:41:28;;;;;;;2.65;1.48;;;3.40;99.90;;;;;;6471342;22;20340;-64
2024/04/22 03:43:54;;;;;;;3.22;2.03;;;3.30;99.90;;;;;;6471664;22;20016;-64
2024/04/22 03:51:48;;;;;;;4.32;1.85;;;3.20;99.90;;;;;;6470671;22;20005;-64
2024/04/22 03:54:14;;;;;;;3.30;1.85;;;3.30;99.90;;;;;;6471887;22;20002;-64
2024/04/22 03:56:40;;;;;;;3.08;2.15;;;3.20;99.90;;;;;;6427552;22;20012;-64
2024/04/22 03:59:06;;;;;;;2.58;1.92;;;2.50;99.90;;;;;;6472256;22;20006;-64
2024/04/22 04:01:32;;;;;;;3.25;1.77;;;3.30;99.90;;;;;;6469431;22;20072;-64
2024/04/22 04:03:59;;;;;;;2.47;1.70;;;3.30;99.90;;;;;;6470670;22;20004;-65
2024/04/22 04:06:37;;;;;;;2.17;1.65;;;3.20;99.90;;;;;;6472624;22;20006;-64
2024/04/22 04:09:02;;;;;;;3.40;2.08;;;3.20;99.90;;;;;;6471225;22;20033;-64
2024/04/22 04:11:33;;;;;;;2.50;1.75;;;3.20;99.90;;;;;;6470712;22;20008;-64
2024/04/22 04:14:08;;;;;;;2.10;1.67;;;3.30;99.90;;;;;;6470875;22;20016;-64
2024/04/22 04:16:34;;;;;;;3.23;2.37;;;3.20;99.90;;;;;;6470879;22;20521;-64
2024/04/22 04:19:20;;;;;;;2.25;2.05;;;3.20;99.90;;;;;;6433571;22;20233;-64
2024/04/22 04:21:46;;;;;;;3.08;1.92;;;3.20;99.90;;;;;;6471757;22;20417;-64
2024/04/22 04:24:13;;;;;;;3.78;2.45;;;3.30;99.90;;;;;;6472273;22;20002;-64
2024/04/22 04:26:39;;;;;;;3.28;2.55;;;3.30;99.90;;;;;;6469986;22;20016;-64
2024/04/22 04:29:06;;;;;;;2.72;2.22;;;3.30;99.90;;;;;;6469078;22;20012;-64
2024/04/22 04:31:32;;;;;;;2.60;2.20;;;3.30;99.90;;;;;;6466452;22;20512;-64
2024/04/22 04:33:58;;;;;;;3.83;2.20;;;3.40;99.90;;;;;;6469437;22;20009;-64
2024/04/22 04:36:23;;;;;;;2.42;2.05;;;3.40;99.90;;;;;;6422029;22;20002;-64
2024/04/22 04:38:49;;;;;;;3.22;2.22;;;3.40;99.90;;;;;;6467040;22;20038;-64
2024/04/22 04:41:15;;;;;;;3.78;2.15;;;3.50;99.90;;;;;;6466403;22;20008;-64
2024/04/22 04:43:40;;;;;;;2.78;2.17;;;3.50;99.90;;;;;;6466748;22;20049;-64
2024/04/22 04:46:06;;;;;;;3.67;2.70;;;3.50;99.90;;;;;;6466554;22;20368;-64
2024/04/22 04:48:32;;;;;;;3.15;2.30;;;3.50;99.90;;;;;;6464704;22;20088;-64
2024/04/22 04:50:57;;;;;;;3.35;2.40;;;3.60;99.90;;;;;;6468168;22;20265;-65
2024/04/22 04:53:23;;;;;;;3.88;2.40;;;3.60;99.90;;;;;;6426596;22;20016;-65
2024/04/22 04:55:49;;;;;;;4.03;1.48;;;3.60;99.90;;;;;;6469374;22;20349;-64
2024/04/22 04:58:15;;;;;;;2.25;0.90;;;3.80;99.90;;;;;;6469932;22;20009;-65
2024/04/22 05:00:41;;;;;;;2.45;1.05;;;3.90;99.90;;;;;;6466426;22;20014;-65
2024/04/22 05:03:07;;;;;;;3.05;1.30;;;4.10;99.90;;;;;;6469615;22;20006;-65
2024/04/22 05:05:32;;;;;;;1.27;1.00;;;4.20;99.90;;;;;;6469791;22;20036;-65
2024/04/22 05:07:59;;;;;;;1.35;0.90;;;4.30;99.90;;;;;;6471191;22;20001;-65
2024/04/22 05:10:25;;;;;;;1.20;0.88;;;4.40;99.90;;;;;;6469379;22;20002;-65
2024/04/22 05:12:50;;;;;;;1.40;0.85;;;4.50;99.90;;;;;;6471819;22;20012;-65
2024/04/22 05:15:16;;;;;;;2.95;1.20;;;4.50;99.90;;;;;;6472316;22;19998;-65
2024/04/22 05:17:42;;;;;;;2.22;1.00;;;4.50;99.90;;;;;;6471468;22;20009;-65
2024/04/22 05:20:09;;;;;;;2.33;1.25;;;4.60;99.90;;;;;;6471551;22;20002;-65
2024/04/22 05:22:35;;;;;;;1.58;0.82;;;4.60;99.90;;;;;;6472736;22;20014;-65
2024/04/22 05:25:01;;;;;;;3.00;1.00;;;4.60;99.90;;;;;;6469839;22;20333;-65
2024/04/22 05:27:27;;;;;;;2.65;1.38;;;4.70;99.90;;;;;;6472533;22;19998;-65
2024/04/22 05:29:53;;;;;;;2.53;0.90;;;4.70;99.90;;;;;;6472160;22;19998;-65
2024/04/22 05:32:19;;;;;;;3.05;0.95;;;4.80;99.90;;;;;;6472951;22;20016;-65
2024/04/22 05:37:29;;;;;;;2.75;1.20;;;4.90;99.90;;;;;;6471468;22;20464;-64
2024/04/22 05:39:55;;;;;;;3.03;1.40;;;4.90;99.90;;;;;;6471436;22;20006;-64
2024/04/22 05:42:20;;;;;;;2.15;1.08;;;4.80;99.90;;;;;;6472579;22;20135;-64
2024/04/22 05:44:46;;;;;;;3.58;1.38;;;5.00;99.90;;;;;;6472939;22;20398;-64
2024/04/22 05:47:12;;;;;;;3.63;1.02;;;5.10;99.90;;;;;;6474051;22;20001;-64
2024/04/22 05:49:38;;;;;;;2.35;0.95;;;5.10;99.90;;;;;;6473731;22;19998;-64
2024/04/22 05:52:04;;;;;;;2.67;0.95;;;5.20;99.90;;;;;;6474161;22;19997;-64
2024/04/22 05:54:29;;;;;;;1.60;1.10;;;5.20;99.90;;;;;;6473598;22;20009;-64
2024/04/22 05:56:55;;;;;;;2.33;1.17;;;5.30;99.90;;;;;;6473808;22;20013;-64
2024/04/22 05:59:22;;;;;;;2.85;1.25;;;5.30;99.90;;;;;;6428070;22;19998;-64
2024/04/22 06:01:48;;;;;;;2.85;1.40;;;5.40;99.90;;;;;;6426668;22;19998;-64
2024/04/22 06:04:14;;;;;;;2.30;1.42;;;5.50;99.90;;;;;;6470860;22;20029;-64
2024/04/22 06:06:39;;;;;;;1.58;1.02;;;5.50;99.90;;;;;;6469243;22;19997;-64
2024/04/22 06:09:14;;;;;;;1.30;1.13;;;5.60;99.90;;;;;;6470657;22;20010;-64
2024/04/22 06:11:41;;;;;;;2.57;1.13;;;5.70;99.90;;;;;;6470325;22;19998;-64
2024/04/22 06:14:07;;;;;;;2.08;1.10;;;5.70;99.90;;;;;;6469334;22;20708;-64
2024/04/22 06:16:34;;;;;;;1.95;1.13;;;5.80;99.90;;;;;;6472473;22;20088;-64
2024/04/22 06:19:03;;;;;;;1.45;1.10;;;5.80;99.90;;;;;;6474394;22;20300;-64
2024/04/22 06:21:29;;;;;;;1.27;1.08;;;5.90;99.90;;;;;;6474575;22;20038;-64
2024/04/22 06:23:55;;;;;;;4.70;1.55;;;6.10;99.90;;;;;;6474972;22;20003;-64
2024/04/22 06:26:20;;;;;;;3.20;1.60;;;6.10;99.90;;;;;;6473929;22;20012;-64
2024/04/22 06:28:46;;;;;;;4.03;1.58;;;6.10;99.90;;;;;;6430518;22;20008;-64
2024/04/22 06:31:13;;;;;;;2.65;1.20;;;6.20;99.90;;;;;;6474772;22;20460;-64
2024/04/22 06:33:42;;;;;;;4.75;1.30;;;6.30;99.90;;;;;;6475536;22;20005;-64
2024/04/22 06:36:11;;;;;;;4.03;1.27;;;6.30;99.90;;;;;;6474851;22;20012;-64
2024/04/22 06:38:37;;;;;;;2.47;1.30;;;6.30;99.90;;;;;;6474374;22;20001;-64
2024/04/22 06:41:04;;;;;;;2.38;1.25;;;6.40;99.90;;;;;;6474933;22;19998;-64
2024/04/22 06:43:30;;;;;;;7.10;1.40;;;6.40;99.90;;;;;;6475245;22;20054;-64
2024/04/22 06:45:56;;;;;;;4.15;1.27;;;6.50;99.90;;;;;;6474915;22;20005;-64
2024/04/22 06:48:21;;;;;;;5.30;1.35;;;6.50;99.90;;;;;;6474653;22;20066;-64
2024/04/22 06:50:47;;;;;;;2.13;1.13;;;6.50;99.90;;;;;;6474921;22;20012;-64
2024/04/22 06:53:13;;;;;;;1.95;1.08;;;6.50;99.90;;;;;;6474790;22;20053;-64
2024/04/22 06:55:41;;;;;;;3.40;1.40;;;6.60;99.90;;;;;;6475365;22;20013;-63
2024/04/22 06:58:06;;;;;;;4.70;1.27;;;6.60;99.90;;;;;;6474738;22;20012;-64
2024/04/22 07:00:32;;;;;;;3.38;1.10;;;6.50;99.90;;;;;;6474166;22;20026;-64
2024/04/22 07:02:58;;;;;;;2.75;1.40;;;6.60;99.90;;;;;;6474767;22;20014;-64
2024/04/22 07:05:24;;;;;;;2.60;1.25;;;6.60;99.90;;;;;;6474782;22;20409;-64
2024/04/22 07:07:49;;;;;;;5.03;1.45;;;6.70;99.90;;;;;;6474969;22;20002;-64
2024/04/22 07:10:15;;;;;;;2.35;1.20;;;6.70;99.90;;;;;;6474110;22;20008;-64
2024/04/22 07:12:41;;;;;;;3.00;1.60;;;6.70;99.90;;;;;;6474542;22;20002;-64
2024/04/22 07:15:08;;;;;;;3.00;1.48;;;6.80;99.90;;;;;;6474749;22;20001;-64
2024/04/22 07:17:33;;;;;;;3.40;1.70;;;6.90;99.90;;;;;;6475008;22;20001;-64
2024/04/22 07:19:59;;;;;;;3.92;1.60;;;7.00;99.90;;;;;;6473294;22;20008;-64
2024/04/22 07:22:29;;;;;;;3.95;1.35;;;7.10;99.90;;;;;;6474531;22;20363;-64
2024/04/22 07:24:55;;;;;;;3.33;1.20;;;7.20;99.90;;;;;;6474872;22;20012;-64
2024/04/22 07:27:21;;;;;;;4.18;1.27;;;7.20;99.90;;;;;;6474409;22;20316;-64
2024/04/22 07:29:48;;;;;;;4.15;1.02;;;7.40;99.90;;;;;;6474200;22;20011;-64
2024/04/22 07:32:15;;;;;;;1.88;1.10;;;7.50;99.90;;;;;;6474782;22;20308;-64
2024/04/22 07:34:42;;;;;;;3.08;1.50;;;7.60;99.90;;;;;;6473738;22;20002;-64
2024/04/22 07:37:19;;;;;;;2.45;1.25;;;7.70;99.90;;;;;;6474703;22;19998;-64
2024/04/22 07:39:46;;;;;;;4.78;1.50;;;7.80;99.90;;;;;;6474598;22;20021;-64
2024/04/22 07:42:12;;;;;;;1.52;0.80;;;7.80;99.90;;;;;;6474445;22;20406;-64
2024/04/22 07:44:38;;;;;;;1.67;0.98;;;7.90;99.90;;;;;;6474875;22;20101;-64
2024/04/22 07:47:04;;;;;;;2.22;1.35;;;7.90;99.90;;;;;;6473411;22;20006;-64
2024/04/22 07:49:29;;;;;;;2.22;1.15;;;8.00;99.90;;;;;;6472046;22;20744;-64
2024/04/22 07:51:55;;;;;;;2.05;1.10;;;8.10;99.90;;;;;;6471417;22;20342;-64
2024/04/22 07:54:21;;;;;;;1.77;0.88;;;8.10;99.90;;;;;;6474361;22;20045;-64
2024/04/22 07:56:47;;;;;;;2.30;1.33;;;8.30;99.90;;;;;;6474795;22;20020;-64
2024/04/22 07:59:13;;;;;;;1.63;0.98;;;8.40;99.90;;;;;;6472152;22;20018;-64
2024/04/22 08:01:40;;;;;;;2.78;0.82;;;8.40;99.90;;;;;;6473657;22;20029;-64
2024/04/22 08:04:08;;;;;;;2.50;0.80;;;8.30;99.90;;;;;;6474841;22;20020;-64
2024/04/22 08:06:39;;;;;;;2.97;1.30;;;8.30;99.90;;;;;;6473675;22;20021;-64
2024/04/22 08:09:05;;;;;;;1.73;0.93;;;8.30;99.90;;;;;;6473389;22;20045;-64
2024/04/22 08:11:31;;;;;;;1.67;0.70;;;8.40;99.90;;;;;;6430007;22;20533;-64
2024/04/22 08:13:56;;;;;;;1.70;1.25;;;8.40;99.90;;;;;;6430423;22;20002;-64
2024/04/22 08:16:22;;;;;;;1.02;0.63;;;8.60;99.90;;;;;;6474099;22;20357;-64
2024/04/22 08:18:48;;;;;;;2.17;0.60;;;8.80;99.90;;;;;;6473893;22;20005;-64
2024/04/22 08:21:14;;;;;;;3.70;0.70;;;9.20;99.90;;;;;;6474327;22;20012;-64
2024/04/22 08:23:41;;;;;;;2.05;0.50;;;9.40;99.90;;;;;;6473727;22;20001;-64
2024/04/22 08:26:07;;;;;;;1.27;0.57;;;9.50;99.60;;;;;;6474511;22;20002;-64
2024/04/22 08:28:32;;;;;;;4.18;0.75;;;9.70;98.80;;;;;;6473844;22;20034;-64
2024/04/22 08:31:06;;;;;;;1.38;0.47;;;9.80;98.80;;;;;;6474032;22;20076;-64
2024/04/22 08:33:33;;;;;;;1.40;0.60;;;10.00;98.10;;;;;;6474299;22;20009;-64
2024/04/22 08:35:59;;;;;;;4.00;0.60;;;10.00;97.00;;;;;;6474177;22;20002;-64
2024/04/22 08:38:25;;;;;;;3.35;0.50;;;9.80;98.30;;;;;;6474504;22;19998;-64
2024/04/22 08:40:51;;;;;;;1.25;0.60;;;9.80;97.70;;;;;;6473931;22;20001;-64
2024/04/22 08:43:18;;;;;;;0.98;0.65;;;9.70;97.50;;;;;;6474185;22;20345;-64
2024/04/22 08:45:47;;;;;;;4.47;1.05;;;10.10;98.80;;;;;;6473472;22;20002;-64
2024/04/22 08:48:13;;;;;;;8.38;2.25;;;10.10;97.60;;;;;;6473046;22;20002;-64
2024/04/22 08:50:40;;;;;;;1.05;0.60;;;10.40;97.00;;;;;;6473912;22;20013;-64
2024/04/22 08:53:10;;;;;;;1.58;0.63;;;10.40;96.20;;;;;;6473219;22;20002;-64
2024/04/22 08:55:37;;;;;;;2.42;0.50;;;10.20;95.60;;;;;;6473644;22;20013;-64
2024/04/22 08:58:09;;;;;;;1.05;0.60;;;9.80;95.20;;;;;;6473771;22;20001;-64
2024/04/22 09:00:36;;;;;;;2.30;0.50;;;9.70;95.80;;;;;;6472850;22;20002;-64
2024/04/22 09:03:02;;;;;;;2.35;0.60;;;10.10;96.70;;;;;;6473823;22;20010;-64
2024/04/22 09:05:28;;;;;;;3.38;0.73;;;9.90;97.00;;;;;;6474193;22;20002;-64
2024/04/22 09:07:55;;;;;;;1.10;0.43;;;10.10;97.20;;;;;;6473842;22;20017;-64
2024/04/22 09:10:24;;;;;;;1.45;0.70;;;10.40;97.10;;;;;;6473861;22;20030;-64
2024/04/22 09:13:00;;;;;;;2.00;0.50;;;10.20;95.70;;;;;;6473861;22;20005;-64
2024/04/22 09:15:29;;;;;;;2.75;0.70;;;9.90;94.70;;;;;;6474030;22;20010;-64
2024/04/22 09:17:55;;;;;;;2.85;0.68;;;9.70;95.10;;;;;;6472152;22;19997;-64
2024/04/22 09:20:30;;;;;;;1.80;0.68;;;10.00;96.40;;;;;;6474983;22;19998;-64
2024/04/22 09:22:56;;;;;;;1.60;0.93;;;10.20;95.30;;;;;;6432158;22;20149;-64
2024/04/22 09:25:21;;;;;;;2.00;0.80;;;10.10;95.80;;;;;;6476237;22;20084;-64
2024/04/22 09:27:49;;;;;;;3.00;0.57;;;10.10;95.70;;;;;;6476118;22;20037;-64
2024/04/22 09:30:19;;;;;;;1.00;0.30;;;10.40;96.30;;;;;;6431839;22;19997;-64
2024/04/22 09:32:48;;;;;;;2.67;0.75;;;10.70;95.50;;;;;;6474448;22;20005;-64
2024/04/22 09:35:19;;;;;;;1.50;0.63;;;10.50;94.30;;;;;;6475545;22;20011;-63
2024/04/22 09:37:49;;;;;;;3.05;0.40;;;10.20;94.10;;;;;;6473957;22;19997;-64
2024/04/22 09:40:16;;;;;;;0.98;0.52;;;10.30;95.00;;;;;;6474239;22;20021;-64
2024/04/22 09:42:44;;;;;;;1.60;0.50;;;10.10;94.70;;;;;;6475346;22;20360;-64
2024/04/22 09:45:12;;;;;;;1.90;0.63;;;10.00;94.50;;;;;;6476125;22;20425;-64
2024/04/22 09:47:41;;;;;;;1.05;0.50;;;10.00;95.80;;;;;;6472932;22;19998;-64
2024/04/22 09:50:10;;;;;;;2.45;1.48;;;10.00;96.00;;;;;;6475241;22;20026;-64
2024/04/22 09:52:38;;;;;;;1.17;0.60;;;10.20;95.50;;;;;;6472838;22;20565;-64
2024/04/22 09:55:05;;;;;;;1.92;0.40;;;10.40;95.80;;;;;;6475592;22;20017;-64
2024/04/22 09:57:41;;;;;;;18.90;1.08;;;10.50;95.40;;;;;;6474523;22;20021;-64
2024/04/22 10:00:09;;;;;;;2.50;0.50;;;10.40;92.40;;;;;;6474845;22;20002;-64
2024/04/22 10:02:34;;;;;;;1.02;0.38;;;10.30;92.40;;;;;;6474147;22;20009;-64
2024/04/22 10:05:00;;;;;;;1.60;0.38;;;10.20;92.60;;;;;;6474814;22;20006;-64
2024/04/22 10:07:26;;;;;;;1.85;0.50;;;10.10;93.00;;;;;;6473946;22;20002;-64
2024/04/22 10:09:56;;;;;;;1.17;0.50;;;10.00;94.10;;;;;;6474127;22;20076;-64
2024/04/22 10:12:26;;;;;;;3.88;0.80;;;9.80;94.30;;;;;;6474861;22;20009;-64
2024/04/22 10:15:11;;;;;;;2.50;0.63;;;9.80;94.90;;;;;;6475533;22;19994;-64
2024/04/22 10:17:37;;;;;;;1.10;0.50;;;9.80;95.20;;;;;;6473973;22;20017;-64
2024/04/22 10:20:03;;;;;;;2.28;0.52;;;9.80;94.90;;;;;;6474078;22;20009;-64
2024/04/22 10:22:33;;;;;;;1.10;0.40;;;9.60;94.50;;;;;;6472016;22;20372;-64
2024/04/22 10:25:05;;;;;;;1.30;0.50;;;9.50;94.80;;;;;;6474784;22;19997;-64
2024/04/22 10:27:38;;;;;;;2.30;0.77;;;9.40;93.90;;;;;;6473123;22;20016;-64
2024/04/22 10:30:05;;;;;;;1.92;0.60;;;9.60;94.50;;;;;;6475041;22;20002;-64
2024/04/22 10:32:31;;;;;;;1.33;0.70;;;9.70;94.60;;;;;;6474651;22;20002;-64
2024/04/22 10:34:57;;;;;;;2.60;0.75;;;9.80;94.30;;;;;;6474707;22;20002;-64
2024/04/22 10:37:23;;;;;;;1.55;0.60;;;10.10;95.10;;;;;;6473591;22;19998;-64
2024/04/22 10:39:49;;;;;;;1.00;0.40;;;10.10;94.50;;;;;;6474125;22;20395;-64
2024/04/22 10:42:19;;;;;;;0.60;0.38;;;9.90;93.70;;;;;;6475576;22;20002;-64
2024/04/22 10:44:45;;;;;;;2.08;0.60;;;9.70;93.70;;;;;;6473530;22;20011;-64
2024/04/22 10:47:11;;;;;;;1.33;0.50;;;9.60;93.90;;;;;;6472693;22;19998;-64
2024/04/22 10:49:37;;;;;;;1.75;0.70;;;9.50;95.30;;;;;;6473219;22;20012;-64
2024/04/22 10:52:03;;;;;;;2.40;0.50;;;9.80;95.90;;;;;;6473377;22;20057;-64
2024/04/22 10:54:29;;;;;;;1.88;0.50;;;10.20;95.40;;;;;;6429963;22;20002;-64
2024/04/22 10:56:55;;;;;;;1.38;0.77;;;10.40;95.10;;;;;;6473243;22;20570;-64
2024/04/22 10:59:21;;;;;;;2.05;0.30;;;10.60;94.00;;;;;;6472782;22;20001;-64
2024/04/22 11:01:47;;;;;;;1.40;0.50;;;10.70;95.10;;;;;;6474720;22;20018;-64
2024/04/22 11:04:13;;;;;;;1.85;0.80;;;10.80;93.50;;;;;;6473743;22;20004;-64
2024/04/22 11:06:40;;;;;;;3.55;0.85;;;10.60;94.80;;;;;;6473052;22;20009;-63
2024/04/22 11:09:07;;;;;;;1.58;1.17;;;9.90;94.90;;;;;;6472530;22;19998;-64
2024/04/22 11:11:35;;;;;;;2.15;1.10;;;9.90;97.00;;;;;;6474406;22;20006;-64
2024/04/22 11:14:05;;;;;;;1.58;0.82;;;9.90;98.20;;;;;;6473048;22;20002;-64
2024/04/22 11:16:31;;;;;;;2.17;1.00;;;10.30;97.50;;;;;;6474714;22;20016;-64
2024/04/22 11:19:04;;;;;;;3.35;1.38;;;10.50;98.00;;;;;;6472415;22;20313;-64
2024/04/22 11:21:30;;;;;;;1.58;0.90;;;10.30;96.90;;;;;;6473569;22;20006;-64
2024/04/22 11:23:57;;;;;;;2.80;0.70;;;10.00;96.90;;;;;;6471650;22;19997;-64
2024/04/22 11:26:24;;;;;;;2.70;0.80;;;9.70;96.10;;;;;;6475013;22;20072;-64
2024/04/22 11:28:55;;;;;;;3.47;1.10;;;9.60;96.70;;;;;;6471480;22;20002;-64
2024/04/22 11:31:22;;;;;;;2.28;0.70;;;9.80;97.80;;;;;;6473465;22;20005;-64
2024/04/22 11:33:48;;;;;;;0.98;0.50;;;10.20;97.40;;;;;;6473713;22;20014;-64
2024/04/22 11:36:14;;;;;;;1.20;0.70;;;10.40;95.00;;;;;;6470881;22;20399;-64
2024/04/22 11:38:40;;;;;;;4.00;1.15;;;10.80;96.30;;;;;;6471817;22;20360;-64
2024/04/22 11:41:08;;;;;;;2.42;0.63;;;11.10;96.80;;;;;;6473010;22;20013;-64
2024/04/22 11:43:33;;;;;;;2.45;0.77;;;11.10;94.60;;;;;;6472311;22;19997;-64
2024/04/22 11:46:01;;;;;;;2.65;0.63;;;10.90;93.90;;;;;;6472016;22;20433;-64
2024/04/22 11:48:26;;;;;;;1.50;0.30;;;10.60;93.10;;;;;;6473958;22;20329;-64
2024/04/22 11:50:52;;;;;;;1.48;0.47;;;10.50;93.20;;;;;;6471442;22;20002;-64
2024/04/22 11:53:18;;;;;;;1.85;0.40;;;10.50;92.50;;;;;;6473633;22;20002;-64
2024/04/22 11:55:45;;;;;;;2.25;0.30;;;10.50;92.70;;;;;;6472888;22;20080;-64
2024/04/22 11:58:11;;;;;;;2.38;0.45;;;10.30;91.80;;;;;;6472645;22;20058;-64
2024/04/22 12:00:37;;;;;;;3.22;0.40;;;10.00;90.90;;;;;;6472897;22;19998;-64
2024/04/22 12:03:03;;;;;;;2.30;0.40;;;9.80;91.70;;;;;;6473429;22;20313;-64
2024/04/22 12:05:29;;;;;;;1.13;0.40;;;10.00;91.90;;;;;;6473848;22;20017;-64
2024/04/22 12:07:54;;;;;;;1.58;0.40;;;10.10;91.50;;;;;;6472732;22;20002;-65
2024/04/22 12:10:20;;;;;;;1.90;0.38;;;10.40;91.00;;;;;;6473498;22;20017;-64
2024/04/22 12:12:46;;;;;;;2.45;0.70;;;10.80;93.00;;;;;;6473185;22;20074;-64
2024/04/22 12:15:12;;;;;;;1.02;0.40;;;11.10;92.80;;;;;;6473497;22;20013;-64
2024/04/22 12:17:38;;;;;;;3.80;0.55;;;10.80;90.80;;;;;;6428513;22;19998;-64
2024/04/22 12:20:03;;;;;;;1.20;0.60;;;10.40;91.60;;;;;;6470136;22;20005;-64
2024/04/22 12:22:29;;;;;;;4.28;0.60;;;10.40;91.60;;;;;;6469244;22;20002;-64
2024/04/22 12:24:55;;;;;;;2.20;0.43;;;10.50;91.40;;;;;;6429350;22;20009;-64
2024/04/22 12:27:22;;;;;;;2.38;0.50;;;10.60;91.40;;;;;;6472031;22;20008;-64
2024/04/22 12:29:47;;;;;;;0.73;0.35;;;10.80;90.20;;;;;;6472056;22;20361;-64
2024/04/22 12:32:13;;;;;;;2.20;0.70;;;10.60;89.30;;;;;;6473827;22;20002;-64
2024/04/22 12:34:39;;;;;;;0.80;0.32;;;10.50;87.80;;;;;;6473574;22;20032;-64
2024/04/22 12:37:06;;;;;;;3.38;0.98;;;10.50;90.20;;;;;;6471824;22;20429;-64
2024/04/22 12:39:31;;;;;;;1.35;0.40;;;10.50;90.10;;;;;;6471799;22;20002;-64
2024/04/22 12:41:57;;;;;;;2.42;0.30;;;10.40;90.30;;;;;;6471127;22;20010;-64
2024/04/22 12:44:23;;;;;;;2.47;0.63;;;10.40;89.40;;;;;;6471616;22;20443;-64
2024/04/22 12:52:19;;;;;;;1.13;0.38;;;10.30;85.70;;;;;;6473661;22;20016;-64
2024/04/22 12:54:45;;;;;;;0.90;0.20;;;10.20;82.10;;;;;;6473091;22;20009;-64
2024/04/22 12:57:11;;;;;;;1.02;0.25;;;10.20;83.30;;;;;;6472773;22;20006;-64
2024/04/22 12:59:37;;;;;;;0.40;0.20;;;10.20;81.00;;;;;;6472426;22;20614;-64
2024/04/22 13:02:11;;;;;;;1.30;0.57;;;10.10;77.80;;;;;;6474000;22;20080;-64
2024/04/22 13:04:37;;;;;;;3.83;0.40;;;10.10;80.10;;;;;;6473960;22;20002;-64
2024/04/22 13:07:02;;;;;;;1.90;0.35;;;10.10;78.90;;;;;;6473658;22;20367;-64